KGUP

Gallup Municipal Airport

Gallup, New Mexico, USA
METAR KGUP 201453Z AUTO 20003KT 10SM OVC075 M09/M12 A2992 RMK AO2 SLP193 T10941117 51016
Observed Flight Rules
Feb-20 @ 14:53 UTC (5 hours ago) Visual Flight Rules
Wind Visibility Clouds
200° at 3 knots 10 miles
  • Overcast at 7,500' AGL
Temperatures Readings
Current -9°C / 16°F
Dewpoint -12°C / 10°F
Humidity 79%
Altimeter 29.92" Hg
Pressure 1019.3 hPa
Elevation 1971
METAR KGUP 201453Z AUTO 20003KT 10SM OVC075 M09/M12 A2992 RMK AO2 SLP193 T10941117 51016
Observed Flight Rules
Feb-20 @ 14:53 UTC
(5 hours ago)
VFR
Wind Visibility
200° at 3 knots 10 miles
Clouds
  • Overcast at 7,500' AGL
Temperature Dewpoint
-9°C / 16°F -12°C / 10°F
Humidity Altimeter Pressure
79% 29.92" Hg 1019.3 hPa